sensor_id;sensor_type;location;lat;lon;timestamp;temperature;humidity
4934;DHT22;2482;49.154;8.254;2023-07-20T00:02:04;19.00;99.90
4934;DHT22;2482;49.154;8.254;2023-07-20T00:04:49;18.90;99.90
4934;DHT22;2482;49.154;8.254;2023-07-20T00:07:17;18.90;99.90
4934;DHT22;2482;49.154;8.254;2023-07-20T00:09:44;18.70;99.90
4934;DHT22;2482;49.154;8.254;2023-07-20T00:12:11;18.60;99.90
4934;DHT22;2482;49.154;8.254;2023-07-20T00:14:38;18.30;99.90
4934;DHT22;2482;49.154;8.254;2023-07-20T00:17:05;18.20;99.90
4934;DHT22;2482;49.154;8.254;2023-07-20T00:19:32;18.30;99.90
4934;DHT22;2482;49.154;8.254;2023-07-20T00:22:00;18.40;99.90
4934;DHT22;2482;49.154;8.254;2023-07-20T00:24:27;18.50;99.90
4934;DHT22;2482;49.154;8.254;2023-07-20T00:26:54;18.70;99.90
4934;DHT22;2482;49.154;8.254;2023-07-20T00:29:21;18.70;99.90
4934;DHT22;2482;49.154;8.254;2023-07-20T00:31:48;18.60;99.90
4934;DHT22;2482;49.154;8.254;2023-07-20T00:34:18;18.50;99.90
4934;DHT22;2482;49.154;8.254;2023-07-20T00:36:45;18.50;99.90
4934;DHT22;2482;49.154;8.254;2023-07-20T00:39:11;18.60;99.90
4934;DHT22;2482;49.154;8.254;2023-07-20T00:41:39;18.60;99.90
4934;DHT22;2482;49.154;8.254;2023-07-20T00:44:06;18.60;99.90
4934;DHT22;2482;49.154;8.254;2023-07-20T00:46:34;18.60;99.90
4934;DHT22;2482;49.154;8.254;2023-07-20T00:49:01;18.50;99.90
4934;DHT22;2482;49.154;8.254;2023-07-20T00:51:29;18.40;99.90
4934;DHT22;2482;49.154;8.254;2023-07-20T00:53:57;18.40;99.90
4934;DHT22;2482;49.154;8.254;2023-07-20T00:56:25;18.40;99.90
4934;DHT22;2482;49.154;8.254;2023-07-20T00:58:52;18.40;99.90
4934;DHT22;2482;49.154;8.254;2023-07-20T01:01:19;18.40;99.90
4934;DHT22;2482;49.154;8.254;2023-07-20T01:03:46;18.40;99.90
4934;DHT22;2482;49.154;8.254;2023-07-20T01:12:47;17.90;99.90
4934;DHT22;2482;49.154;8.254;2023-07-20T01:14:49;17.60;99.90
4934;DHT22;2482;49.154;8.254;2023-07-20T01:17:16;17.50;99.90
4934;DHT22;2482;49.154;8.254;2023-07-20T01:19:43;17.10;99.90
4934;DHT22;2482;49.154;8.254;2023-07-20T01:28:22;16.80;99.90
4934;DHT22;2482;49.154;8.254;2023-07-20T01:31:21;16.70;99.90
4934;DHT22;2482;49.154;8.254;2023-07-20T01:33:54;16.50;99.90
4934;DHT22;2482;49.154;8.254;2023-07-20T01:36:24;16.40;99.90
4934;DHT22;2482;49.154;8.254;2023-07-20T01:38:54;16.30;99.90
4934;DHT22;2482;49.154;8.254;2023-07-20T01:41:23;16.30;99.90
4934;DHT22;2482;49.154;8.254;2023-07-20T01:43:50;16.30;99.90
4934;DHT22;2482;49.154;8.254;2023-07-20T01:46:17;16.40;99.90
4934;DHT22;2482;49.154;8.254;2023-07-20T01:48:44;16.70;99.90
4934;DHT22;2482;49.154;8.254;2023-07-20T01:51:11;17.10;99.90
4934;DHT22;2482;49.154;8.254;2023-07-20T01:53:38;17.20;99.90
4934;DHT22;2482;49.154;8.254;2023-07-20T01:56:05;17.40;99.90
4934;DHT22;2482;49.154;8.254;2023-07-20T01:58:32;17.50;99.90
4934;DHT22;2482;49.154;8.254;2023-07-20T02:01:00;17.40;99.90
4934;DHT22;2482;49.154;8.254;2023-07-20T02:03:28;17.40;99.90
4934;DHT22;2482;49.154;8.254;2023-07-20T02:05:55;17.50;99.90
4934;DHT22;2482;49.154;8.254;2023-07-20T02:08:23;17.30;99.90
4934;DHT22;2482;49.154;8.254;2023-07-20T02:10:51;16.90;99.90
4934;DHT22;2482;49.154;8.254;2023-07-20T02:13:18;16.40;99.90
4934;DHT22;2482;49.154;8.254;2023-07-20T02:15:45;16.20;99.90
4934;DHT22;2482;49.154;8.254;2023-07-20T02:18:14;16.10;99.90
4934;DHT22;2482;49.154;8.254;2023-07-20T02:20:41;16.00;99.90
4934;DHT22;2482;49.154;8.254;2023-07-20T02:23:10;16.00;99.90
4934;DHT22;2482;49.154;8.254;2023-07-20T02:25:37;16.10;99.90
4934;DHT22;2482;49.154;8.254;2023-07-20T02:28:06;16.10;99.90
4934;DHT22;2482;49.154;8.254;2023-07-20T02:30:33;16.50;99.90
4934;DHT22;2482;49.154;8.254;2023-07-20T02:33:03;16.60;99.90
4934;DHT22;2482;49.154;8.254;2023-07-20T02:35:32;16.40;99.90
4934;DHT22;2482;49.154;8.254;2023-07-20T02:37:59;16.20;99.90
4934;DHT22;2482;49.154;8.254;2023-07-20T02:40:26;16.20;99.90
4934;DHT22;2482;49.154;8.254;2023-07-20T02:42:54;16.20;99.90
4934;DHT22;2482;49.154;8.254;2023-07-20T02:45:21;16.30;99.90
4934;DHT22;2482;49.154;8.254;2023-07-20T02:47:48;16.20;99.90
4934;DHT22;2482;49.154;8.254;2023-07-20T02:50:15;16.10;99.90
4934;DHT22;2482;49.154;8.254;2023-07-20T02:52:42;16.20;99.90
4934;DHT22;2482;49.154;8.254;2023-07-20T02:55:09;16.20;99.90
4934;DHT22;2482;49.154;8.254;2023-07-20T02:57:36;16.30;99.90
4934;DHT22;2482;49.154;8.254;2023-07-20T03:00:04;16.50;99.90
4934;DHT22;2482;49.154;8.254;2023-07-20T03:02:33;16.60;99.90
4934;DHT22;2482;49.154;8.254;2023-07-20T03:05:01;16.60;99.90
4934;DHT22;2482;49.154;8.254;2023-07-20T03:07:29;16.60;99.90
4934;DHT22;2482;49.154;8.254;2023-07-20T03:09:57;16.60;99.90
4934;DHT22;2482;49.154;8.254;2023-07-20T03:12:24;16.50;99.90
4934;DHT22;2482;49.154;8.254;2023-07-20T03:14:51;16.40;99.90
4934;DHT22;2482;49.154;8.254;2023-07-20T03:17:19;16.40;99.90
4934;DHT22;2482;49.154;8.254;2023-07-20T03:19:47;16.50;99.90
4934;DHT22;2482;49.154;8.254;2023-07-20T03:22:14;16.50;99.90
4934;DHT22;2482;49.154;8.254;2023-07-20T03:24:41;16.50;99.90
4934;DHT22;2482;49.154;8.254;2023-07-20T03:27:09;16.50;99.90
4934;DHT22;2482;49.154;8.254;2023-07-20T03:29:36;16.60;99.90
4934;DHT22;2482;49.154;8.254;2023-07-20T03:32:04;16.50;99.90
4934;DHT22;2482;49.154;8.254;2023-07-20T03:34:31;16.50;99.90
4934;DHT22;2482;49.154;8.254;2023-07-20T03:36:58;16.50;99.90
4934;DHT22;2482;49.154;8.254;2023-07-20T03:39:26;16.50;99.90
4934;DHT22;2482;49.154;8.254;2023-07-20T03:41:53;16.50;99.90
4934;DHT22;2482;49.154;8.254;2023-07-20T03:44:21;16.40;99.90
4934;DHT22;2482;49.154;8.254;2023-07-20T03:46:48;16.40;99.90
4934;DHT22;2482;49.154;8.254;2023-07-20T03:49:15;16.50;99.90
4934;DHT22;2482;49.154;8.254;2023-07-20T03:51:42;16.40;99.90
4934;DHT22;2482;49.154;8.254;2023-07-20T03:54:09;16.30;99.90
4934;DHT22;2482;49.154;8.254;2023-07-20T03:56:36;16.30;99.90
4934;DHT22;2482;49.154;8.254;2023-07-20T03:59:03;16.40;99.90
4934;DHT22;2482;49.154;8.254;2023-07-20T04:01:30;16.30;99.90
4934;DHT22;2482;49.154;8.254;2023-07-20T04:04:07;16.20;99.90
4934;DHT22;2482;49.154;8.254;2023-07-20T04:06:35;16.00;99.90
4934;DHT22;2482;49.154;8.254;2023-07-20T04:09:03;15.70;99.90
4934;DHT22;2482;49.154;8.254;2023-07-20T04:11:31;15.60;99.90
4934;DHT22;2482;49.154;8.254;2023-07-20T04:13:58;15.30;99.90
4934;DHT22;2482;49.154;8.254;2023-07-20T04:16:25;15.10;99.90
4934;DHT22;2482;49.154;8.254;2023-07-20T04:18:57;15.10;99.90
4934;DHT22;2482;49.154;8.254;2023-07-20T04:21:28;15.00;99.90
4934;DHT22;2482;49.154;8.254;2023-07-20T04:23:55;15.00;99.90
4934;DHT22;2482;49.154;8.254;2023-07-20T04:26:22;15.10;99.90
4934;DHT22;2482;49.154;8.254;2023-07-20T04:28:49;15.40;99.90
4934;DHT22;2482;49.154;8.254;2023-07-20T04:31:17;15.60;99.90
4934;DHT22;2482;49.154;8.254;2023-07-20T04:33:44;15.60;99.90
4934;DHT22;2482;49.154;8.254;2023-07-20T04:36:11;15.60;99.90
4934;DHT22;2482;49.154;8.254;2023-07-20T04:38:39;15.70;99.90
4934;DHT22;2482;49.154;8.254;2023-07-20T04:41:06;15.90;99.90
4934;DHT22;2482;49.154;8.254;2023-07-20T04:43:33;16.20;99.90
4934;DHT22;2482;49.154;8.254;2023-07-20T04:46:00;16.50;99.90
4934;DHT22;2482;49.154;8.254;2023-07-20T04:48:27;16.90;99.90
4934;DHT22;2482;49.154;8.254;2023-07-20T04:50:55;17.40;99.90
4934;DHT22;2482;49.154;8.254;2023-07-20T04:53:22;17.80;99.90
4934;DHT22;2482;49.154;8.254;2023-07-20T04:55:50;17.90;99.90
4934;DHT22;2482;49.154;8.254;2023-07-20T04:58:20;18.10;99.90
4934;DHT22;2482;49.154;8.254;2023-07-20T05:00:48;18.30;99.90
4934;DHT22;2482;49.154;8.254;2023-07-20T05:03:16;18.50;99.90
4934;DHT22;2482;49.154;8.254;2023-07-20T05:05:43;18.50;99.90
4934;DHT22;2482;49.154;8.254;2023-07-20T05:08:14;18.60;99.90
4934;DHT22;2482;49.154;8.254;2023-07-20T05:10:42;18.60;99.90
4934;DHT22;2482;49.154;8.254;2023-07-20T05:13:09;18.90;99.90
4934;DHT22;2482;49.154;8.254;2023-07-20T05:15:36;19.00;99.90
4934;DHT22;2482;49.154;8.254;2023-07-20T05:18:03;19.20;99.90
4934;DHT22;2482;49.154;8.254;2023-07-20T05:20:31;19.30;99.90
4934;DHT22;2482;49.154;8.254;2023-07-20T05:22:59;19.30;99.90
4934;DHT22;2482;49.154;8.254;2023-07-20T05:25:27;19.40;99.90
4934;DHT22;2482;49.154;8.254;2023-07-20T05:27:57;19.60;99.90
4934;DHT22;2482;49.154;8.254;2023-07-20T05:30:24;19.30;99.90
4934;DHT22;2482;49.154;8.254;2023-07-20T05:32:52;19.00;99.90
4934;DHT22;2482;49.154;8.254;2023-07-20T05:35:21;18.60;99.90
4934;DHT22;2482;49.154;8.254;2023-07-20T05:37:49;18.30;99.90
4934;DHT22;2482;49.154;8.254;2023-07-20T05:40:16;18.30;99.90
4934;DHT22;2482;49.154;8.254;2023-07-20T05:42:47;18.50;99.90
4934;DHT22;2482;49.154;8.254;2023-07-20T05:45:15;18.60;99.90
4934;DHT22;2482;49.154;8.254;2023-07-20T05:47:42;18.80;99.90
4934;DHT22;2482;49.154;8.254;2023-07-20T05:50:10;18.90;99.90
4934;DHT22;2482;49.154;8.254;2023-07-20T05:52:37;19.10;99.90
4934;DHT22;2482;49.154;8.254;2023-07-20T05:55:06;19.10;99.90
4934;DHT22;2482;49.154;8.254;2023-07-20T05:57:33;19.30;99.90
4934;DHT22;2482;49.154;8.254;2023-07-20T06:00:02;19.40;99.90
4934;DHT22;2482;49.154;8.254;2023-07-20T06:02:30;19.70;99.90
4934;DHT22;2482;49.154;8.254;2023-07-20T06:04:59;19.70;99.90
4934;DHT22;2482;49.154;8.254;2023-07-20T06:07:26;19.60;99.90
4934;DHT22;2482;49.154;8.254;2023-07-20T06:09:54;19.40;99.90
4934;DHT22;2482;49.154;8.254;2023-07-20T06:12:21;19.30;99.90
4934;DHT22;2482;49.154;8.254;2023-07-20T06:14:48;19.50;99.90
4934;DHT22;2482;49.154;8.254;2023-07-20T06:17:15;19.50;99.90
4934;DHT22;2482;49.154;8.254;2023-07-20T06:19:42;19.70;99.90
4934;DHT22;2482;49.154;8.254;2023-07-20T06:22:09;19.90;99.90
4934;DHT22;2482;49.154;8.254;2023-07-20T06:24:36;20.10;99.90
4934;DHT22;2482;49.154;8.254;2023-07-20T06:27:03;20.10;99.90
4934;DHT22;2482;49.154;8.254;2023-07-20T06:29:32;19.90;99.90
4934;DHT22;2482;49.154;8.254;2023-07-20T06:31:59;20.10;99.90
4934;DHT22;2482;49.154;8.254;2023-07-20T06:34:26;20.30;99.90
4934;DHT22;2482;49.154;8.254;2023-07-20T06:36:53;20.60;99.90
4934;DHT22;2482;49.154;8.254;2023-07-20T06:39:20;20.80;99.90
4934;DHT22;2482;49.154;8.254;2023-07-20T06:41:51;21.10;99.90
4934;DHT22;2482;49.154;8.254;2023-07-20T06:44:21;21.30;99.90
4934;DHT22;2482;49.154;8.254;2023-07-20T06:46:49;21.40;99.90
4934;DHT22;2482;49.154;8.254;2023-07-20T06:49:29;21.50;99.90
4934;DHT22;2482;49.154;8.254;2023-07-20T06:51:56;21.70;99.90
4934;DHT22;2482;49.154;8.254;2023-07-20T06:54:23;21.90;99.90
4934;DHT22;2482;49.154;8.254;2023-07-20T06:56:51;22.00;99.90
4934;DHT22;2482;49.154;8.254;2023-07-20T06:59:21;21.60;99.90
4934;DHT22;2482;49.154;8.254;2023-07-20T07:01:48;21.40;99.90
4934;DHT22;2482;49.154;8.254;2023-07-20T07:04:15;21.50;99.90
4934;DHT22;2482;49.154;8.254;2023-07-20T07:06:42;21.60;99.90
4934;DHT22;2482;49.154;8.254;2023-07-20T07:09:10;21.70;99.90
4934;DHT22;2482;49.154;8.254;2023-07-20T07:11:37;21.80;99.90
4934;DHT22;2482;49.154;8.254;2023-07-20T07:14:04;22.00;99.90
4934;DHT22;2482;49.154;8.254;2023-07-20T07:16:31;21.80;99.90
4934;DHT22;2482;49.154;8.254;2023-07-20T07:18:58;21.70;99.90
4934;DHT22;2482;49.154;8.254;2023-07-20T07:21:28;21.70;99.90
4934;DHT22;2482;49.154;8.254;2023-07-20T07:23:55;21.60;99.90
4934;DHT22;2482;49.154;8.254;2023-07-20T07:26:24;21.80;99.90
4934;DHT22;2482;49.154;8.254;2023-07-20T07:28:51;22.00;99.90
4934;DHT22;2482;49.154;8.254;2023-07-20T07:31:18;22.30;99.90
4934;DHT22;2482;49.154;8.254;2023-07-20T07:33:45;22.20;99.90
4934;DHT22;2482;49.154;8.254;2023-07-20T07:36:12;22.00;99.90
4934;DHT22;2482;49.154;8.254;2023-07-20T07:38:40;22.00;99.90
4934;DHT22;2482;49.154;8.254;2023-07-20T07:41:10;22.00;99.90
4934;DHT22;2482;49.154;8.254;2023-07-20T07:43:37;22.00;99.90
4934;DHT22;2482;49.154;8.254;2023-07-20T07:46:05;21.90;99.90
4934;DHT22;2482;49.154;8.254;2023-07-20T07:48:32;22.30;99.90
4934;DHT22;2482;49.154;8.254;2023-07-20T07:50:59;22.40;99.90
4934;DHT22;2482;49.154;8.254;2023-07-20T07:53:26;22.30;99.90
4934;DHT22;2482;49.154;8.254;2023-07-20T07:55:53;22.20;99.90
4934;DHT22;2482;49.154;8.254;2023-07-20T07:58:21;22.20;99.90
4934;DHT22;2482;49.154;8.254;2023-07-20T08:00:48;22.10;99.90
4934;DHT22;2482;49.154;8.254;2023-07-20T08:03:15;22.60;99.90
4934;DHT22;2482;49.154;8.254;2023-07-20T08:05:42;23.10;99.90
4934;DHT22;2482;49.154;8.254;2023-07-20T08:08:09;23.40;99.90
4934;DHT22;2482;49.154;8.254;2023-07-20T08:10:36;23.30;99.90
4934;DHT22;2482;49.154;8.254;2023-07-20T08:13:03;23.20;99.90
4934;DHT22;2482;49.154;8.254;2023-07-20T08:15:30;23.40;99.90
4934;DHT22;2482;49.154;8.254;2023-07-20T08:17:57;23.60;99.90
4934;DHT22;2482;49.154;8.254;2023-07-20T08:20:24;23.80;99.90
4934;DHT22;2482;49.154;8.254;2023-07-20T08:22:55;23.30;99.90
4934;DHT22;2482;49.154;8.254;2023-07-20T08:25:22;23.20;99.90
4934;DHT22;2482;49.154;8.254;2023-07-20T08:27:49;23.00;99.90
4934;DHT22;2482;49.154;8.254;2023-07-20T08:30:16;23.00;99.90
4934;DHT22;2482;49.154;8.254;2023-07-20T08:32:43;23.40;99.90
4934;DHT22;2482;49.154;8.254;2023-07-20T08:35:10;23.70;99.90
4934;DHT22;2482;49.154;8.254;2023-07-20T08:37:41;23.90;99.90
4934;DHT22;2482;49.154;8.254;2023-07-20T08:40:09;24.00;99.90
4934;DHT22;2482;49.154;8.254;2023-07-20T08:42:37;24.10;99.90
4934;DHT22;2482;49.154;8.254;2023-07-20T08:45:08;24.10;99.90
4934;DHT22;2482;49.154;8.254;2023-07-20T08:47:36;24.20;99.90
4934;DHT22;2482;49.154;8.254;2023-07-20T08:50:07;24.50;99.90
4934;DHT22;2482;49.154;8.254;2023-07-20T08:52:36;24.40;99.90
4934;DHT22;2482;49.154;8.254;2023-07-20T08:55:03;24.40;99.90
4934;DHT22;2482;49.154;8.254;2023-07-20T08:57:33;24.40;99.90
4934;DHT22;2482;49.154;8.254;2023-07-20T09:00:03;25.10;99.90
4934;DHT22;2482;49.154;8.254;2023-07-20T09:02:39;25.60;99.90
4934;DHT22;2482;49.154;8.254;2023-07-20T09:05:09;25.80;99.90
4934;DHT22;2482;49.154;8.254;2023-07-20T09:07:42;25.80;99.90
4934;DHT22;2482;49.154;8.254;2023-07-20T09:10:09;25.80;99.90
4934;DHT22;2482;49.154;8.254;2023-07-20T09:12:42;25.40;99.90
4934;DHT22;2482;49.154;8.254;2023-07-20T09:15:11;25.60;99.90
4934;DHT22;2482;49.154;8.254;2023-07-20T09:17:39;26.10;99.90
4934;DHT22;2482;49.154;8.254;2023-07-20T09:20:08;26.30;99.90
4934;DHT22;2482;49.154;8.254;2023-07-20T09:22:38;26.20;99.90
4934;DHT22;2482;49.154;8.254;2023-07-20T09:25:18;26.10;99.90
4934;DHT22;2482;49.154;8.254;2023-07-20T09:27:51;26.20;99.90
4934;DHT22;2482;49.154;8.254;2023-07-20T09:30:18;26.20;99.90
4934;DHT22;2482;49.154;8.254;2023-07-20T09:32:49;26.10;99.90
4934;DHT22;2482;49.154;8.254;2023-07-20T09:35:22;26.10;99.90
4934;DHT22;2482;49.154;8.254;2023-07-20T09:37:59;25.50;99.90
4934;DHT22;2482;49.154;8.254;2023-07-20T09:40:30;24.90;99.90
4934;DHT22;2482;49.154;8.254;2023-07-20T09:42:59;24.80;99.90
4934;DHT22;2482;49.154;8.254;2023-07-20T09:45:33;25.00;99.90
4934;DHT22;2482;49.154;8.254;2023-07-20T09:48:04;25.00;99.90
4934;DHT22;2482;49.154;8.254;2023-07-20T09:50:43;25.10;99.90
4934;DHT22;2482;49.154;8.254;2023-07-20T09:53:17;25.70;99.90
4934;DHT22;2482;49.154;8.254;2023-07-20T09:55:45;26.50;99.90
4934;DHT22;2482;49.154;8.254;2023-07-20T09:58:16;27.00;99.90
4934;DHT22;2482;49.154;8.254;2023-07-20T10:00:44;26.80;99.90
4934;DHT22;2482;49.154;8.254;2023-07-20T10:03:22;26.90;99.90
4934;DHT22;2482;49.154;8.254;2023-07-20T10:06:05;26.20;99.90
4934;DHT22;2482;49.154;8.254;2023-07-20T10:08:41;26.90;99.90
4934;DHT22;2482;49.154;8.254;2023-07-20T10:11:12;27.50;99.90
4934;DHT22;2482;49.154;8.254;2023-07-20T10:13:43;28.00;99.90
4934;DHT22;2482;49.154;8.254;2023-07-20T10:16:17;28.10;99.00
4934;DHT22;2482;49.154;8.254;2023-07-20T10:19:13;28.80;98.00
4934;DHT22;2482;49.154;8.254;2023-07-20T10:21:48;29.20;98.60
4934;DHT22;2482;49.154;8.254;2023-07-20T10:24:25;29.30;97.90
4934;DHT22;2482;49.154;8.254;2023-07-20T10:26:54;29.20;98.00
4934;DHT22;2482;49.154;8.254;2023-07-20T10:29:22;29.00;97.40
4934;DHT22;2482;49.154;8.254;2023-07-20T10:31:50;28.30;94.10
4934;DHT22;2482;49.154;8.254;2023-07-20T10:34:21;27.70;95.00
4934;DHT22;2482;49.154;8.254;2023-07-20T10:36:49;27.50;93.70
4934;DHT22;2482;49.154;8.254;2023-07-20T10:39:30;26.50;94.40
4934;DHT22;2482;49.154;8.254;2023-07-20T10:42:03;26.10;95.80
4934;DHT22;2482;49.154;8.254;2023-07-20T10:44:33;25.90;95.00
4934;DHT22;2482;49.154;8.254;2023-07-20T10:47:02;25.80;94.50
4934;DHT22;2482;49.154;8.254;2023-07-20T10:49:39;26.50;94.30
4934;DHT22;2482;49.154;8.254;2023-07-20T10:52:37;26.80;95.90
4934;DHT22;2482;49.154;8.254;2023-07-20T10:55:25;27.30;95.70
4934;DHT22;2482;49.154;8.254;2023-07-20T10:58:11;27.20;93.80
4934;DHT22;2482;49.154;8.254;2023-07-20T11:01:01;27.00;91.80
4934;DHT22;2482;49.154;8.254;2023-07-20T11:03:31;26.40;92.90
4934;DHT22;2482;49.154;8.254;2023-07-20T11:06:33;25.80;93.20
4934;DHT22;2482;49.154;8.254;2023-07-20T11:09:11;26.10;93.20
4934;DHT22;2482;49.154;8.254;2023-07-20T11:11:44;26.10;94.80
4934;DHT22;2482;49.154;8.254;2023-07-20T11:14:23;25.80;94.60
4934;DHT22;2482;49.154;8.254;2023-07-20T11:16:52;25.50;94.40
4934;DHT22;2482;49.154;8.254;2023-07-20T11:19:21;26.00;93.70
4934;DHT22;2482;49.154;8.254;2023-07-20T11:21:55;26.50;93.60
4934;DHT22;2482;49.154;8.254;2023-07-20T11:24:30;27.10;93.70
4934;DHT22;2482;49.154;8.254;2023-07-20T11:26:58;27.50;92.90
4934;DHT22;2482;49.154;8.254;2023-07-20T11:29:25;28.00;90.80
4934;DHT22;2482;49.154;8.254;2023-07-20T11:31:56;28.50;90.90
4934;DHT22;2482;49.154;8.254;2023-07-20T11:34:24;28.60;88.90
4934;DHT22;2482;49.154;8.254;2023-07-20T11:36:51;28.60;88.80
4934;DHT22;2482;49.154;8.254;2023-07-20T11:39:22;28.80;84.10
4934;DHT22;2482;49.154;8.254;2023-07-20T11:41:55;28.70;85.60
4934;DHT22;2482;49.154;8.254;2023-07-20T11:44:24;29.20;85.50
4934;DHT22;2482;49.154;8.254;2023-07-20T11:47:04;28.60;83.70
4934;DHT22;2482;49.154;8.254;2023-07-20T11:49:36;27.60;85.70
4934;DHT22;2482;49.154;8.254;2023-07-20T11:52:08;27.90;85.10
4934;DHT22;2482;49.154;8.254;2023-07-20T11:54:39;28.10;83.80
4934;DHT22;2482;49.154;8.254;2023-07-20T11:57:06;28.30;81.40
4934;DHT22;2482;49.154;8.254;2023-07-20T11:59:34;28.30;83.50
4934;DHT22;2482;49.154;8.254;2023-07-20T12:02:05;28.90;82.00
4934;DHT22;2482;49.154;8.254;2023-07-20T12:04:33;28.30;80.20
4934;DHT22;2482;49.154;8.254;2023-07-20T12:07:00;28.70;80.30
4934;DHT22;2482;49.154;8.254;2023-07-20T12:09:27;28.80;81.30
4934;DHT22;2482;49.154;8.254;2023-07-20T12:12:14;28.60;82.00
4934;DHT22;2482;49.154;8.254;2023-07-20T12:14:41;28.50;81.30
4934;DHT22;2482;49.154;8.254;2023-07-20T12:17:08;28.40;80.10
4934;DHT22;2482;49.154;8.254;2023-07-20T12:19:40;28.60;80.80
4934;DHT22;2482;49.154;8.254;2023-07-20T12:22:08;28.40;80.40
4934;DHT22;2482;49.154;8.254;2023-07-20T12:24:34;28.50;78.60
4934;DHT22;2482;49.154;8.254;2023-07-20T12:27:02;28.60;78.90
4934;DHT22;2482;49.154;8.254;2023-07-20T12:29:30;28.90;77.70
4934;DHT22;2482;49.154;8.254;2023-07-20T12:32:02;29.10;76.70
4934;DHT22;2482;49.154;8.254;2023-07-20T12:34:29;29.30;78.20
4934;DHT22;2482;49.154;8.254;2023-07-20T12:36:56;29.60;80.50
4934;DHT22;2482;49.154;8.254;2023-07-20T12:39:23;29.60;78.00
4934;DHT22;2482;49.154;8.254;2023-07-20T12:41:50;29.20;78.20
4934;DHT22;2482;49.154;8.254;2023-07-20T12:44:18;29.60;80.60
4934;DHT22;2482;49.154;8.254;2023-07-20T12:46:45;29.70;76.60
4934;DHT22;2482;49.154;8.254;2023-07-20T12:49:12;29.40;75.10
4934;DHT22;2482;49.154;8.254;2023-07-20T12:51:39;29.10;74.10
4934;DHT22;2482;49.154;8.254;2023-07-20T12:54:06;28.80;74.80
4934;DHT22;2482;49.154;8.254;2023-07-20T12:56:33;28.60;80.50
4934;DHT22;2482;49.154;8.254;2023-07-20T12:59:03;29.20;74.10
4934;DHT22;2482;49.154;8.254;2023-07-20T13:01:33;29.40;77.40
4934;DHT22;2482;49.154;8.254;2023-07-20T13:04:00;29.60;75.20
4934;DHT22;2482;49.154;8.254;2023-07-20T13:06:30;29.90;73.20
4934;DHT22;2482;49.154;8.254;2023-07-20T13:08:57;29.50;75.80
4934;DHT22;2482;49.154;8.254;2023-07-20T13:11:25;29.60;71.40
4934;DHT22;2482;49.154;8.254;2023-07-20T13:13:52;29.60;70.90
4934;DHT22;2482;49.154;8.254;2023-07-20T13:16:19;29.40;70.90
4934;DHT22;2482;49.154;8.254;2023-07-20T13:18:46;29.60;70.70
4934;DHT22;2482;49.154;8.254;2023-07-20T13:21:14;29.20;70.30
4934;DHT22;2482;49.154;8.254;2023-07-20T13:23:41;29.20;72.70
4934;DHT22;2482;49.154;8.254;2023-07-20T13:26:08;29.50;72.30
4934;DHT22;2482;49.154;8.254;2023-07-20T13:28:35;29.70;69.70
4934;DHT22;2482;49.154;8.254;2023-07-20T13:31:03;29.70;70.40
4934;DHT22;2482;49.154;8.254;2023-07-20T13:33:30;29.10;69.90
4934;DHT22;2482;49.154;8.254;2023-07-20T13:36:01;28.60;71.10
4934;DHT22;2482;49.154;8.254;2023-07-20T13:38:35;28.50;71.30
4934;DHT22;2482;49.154;8.254;2023-07-20T13:41:03;28.90;69.90
4934;DHT22;2482;49.154;8.254;2023-07-20T13:43:30;29.00;71.10
4934;DHT22;2482;49.154;8.254;2023-07-20T13:45:57;28.90;67.80
4934;DHT22;2482;49.154;8.254;2023-07-20T13:48:24;29.10;69.00
4934;DHT22;2482;49.154;8.254;2023-07-20T13:50:54;29.40;69.80
4934;DHT22;2482;49.154;8.254;2023-07-20T13:53:24;28.60;70.40
4934;DHT22;2482;49.154;8.254;2023-07-20T13:55:54;28.50;70.00
4934;DHT22;2482;49.154;8.254;2023-07-20T13:58:25;28.50;70.20
4934;DHT22;2482;49.154;8.254;2023-07-20T14:00:52;28.50;69.60
4934;DHT22;2482;49.154;8.254;2023-07-20T14:03:21;28.60;70.80
4934;DHT22;2482;49.154;8.254;2023-07-20T14:05:49;28.80;69.90
4934;DHT22;2482;49.154;8.254;2023-07-20T14:08:21;29.10;69.60
4934;DHT22;2482;49.154;8.254;2023-07-20T14:10:48;29.20;68.20
4934;DHT22;2482;49.154;8.254;2023-07-20T14:13:18;28.90;69.20
4934;DHT22;2482;49.154;8.254;2023-07-20T14:15:46;29.20;69.50
4934;DHT22;2482;49.154;8.254;2023-07-20T14:18:13;29.50;69.90
4934;DHT22;2482;49.154;8.254;2023-07-20T14:20:43;29.80;72.00
4934;DHT22;2482;49.154;8.254;2023-07-20T14:23:10;29.80;69.20
4934;DHT22;2482;49.154;8.254;2023-07-20T14:25:37;29.70;68.80
4934;DHT22;2482;49.154;8.254;2023-07-20T14:28:04;29.60;68.40
4934;DHT22;2482;49.154;8.254;2023-07-20T14:30:31;29.50;68.00
4934;DHT22;2482;49.154;8.254;2023-07-20T14:32:58;29.40;69.60
4934;DHT22;2482;49.154;8.254;2023-07-20T14:35:26;29.50;68.20
4934;DHT22;2482;49.154;8.254;2023-07-20T14:37:54;29.30;69.30
4934;DHT22;2482;49.154;8.254;2023-07-20T14:40:21;29.30;67.50
4934;DHT22;2482;49.154;8.254;2023-07-20T14:42:48;29.50;69.40
4934;DHT22;2482;49.154;8.254;2023-07-20T14:45:15;29.60;68.70
4934;DHT22;2482;49.154;8.254;2023-07-20T14:47:43;29.70;68.30
4934;DHT22;2482;49.154;8.254;2023-07-20T14:50:10;29.60;67.00
4934;DHT22;2482;49.154;8.254;2023-07-20T14:52:37;29.30;67.60
4934;DHT22;2482;49.154;8.254;2023-07-20T14:55:15;29.10;66.60
4934;DHT22;2482;49.154;8.254;2023-07-20T14:57:42;28.70;65.80
4934;DHT22;2482;49.154;8.254;2023-07-20T15:00:10;28.60;65.90
4934;DHT22;2482;49.154;8.254;2023-07-20T15:02:39;28.50;66.20
4934;DHT22;2482;49.154;8.254;2023-07-20T15:05:09;28.70;65.60
4934;DHT22;2482;49.154;8.254;2023-07-20T15:07:37;28.80;68.10
4934;DHT22;2482;49.154;8.254;2023-07-20T15:10:04;29.10;68.10
4934;DHT22;2482;49.154;8.254;2023-07-20T15:12:32;29.00;67.20
4934;DHT22;2482;49.154;8.254;2023-07-20T15:15:08;29.20;65.80
4934;DHT22;2482;49.154;8.254;2023-07-20T15:17:40;29.70;67.30
4934;DHT22;2482;49.154;8.254;2023-07-20T15:20:10;29.60;63.90
4934;DHT22;2482;49.154;8.254;2023-07-20T15:22:38;29.70;67.50
4934;DHT22;2482;49.154;8.254;2023-07-20T15:25:07;29.60;64.20
4934;DHT22;2482;49.154;8.254;2023-07-20T15:27:36;29.40;64.00
4934;DHT22;2482;49.154;8.254;2023-07-20T15:30:03;29.40;65.00
4934;DHT22;2482;49.154;8.254;2023-07-20T15:32:32;29.70;62.80
4934;DHT22;2482;49.154;8.254;2023-07-20T15:35:19;28.70;63.00
4934;DHT22;2482;49.154;8.254;2023-07-20T15:37:46;28.70;63.60
4934;DHT22;2482;49.154;8.254;2023-07-20T15:40:13;28.90;62.10
4934;DHT22;2482;49.154;8.254;2023-07-20T15:42:40;28.90;62.60
4934;DHT22;2482;49.154;8.254;2023-07-20T15:45:07;28.30;63.20
4934;DHT22;2482;49.154;8.254;2023-07-20T15:47:35;28.00;63.50
4934;DHT22;2482;49.154;8.254;2023-07-20T15:50:03;27.80;63.80
4934;DHT22;2482;49.154;8.254;2023-07-20T15:52:30;27.40;64.10
4934;DHT22;2482;49.154;8.254;2023-07-20T15:54:57;27.40;67.50
4934;DHT22;2482;49.154;8.254;2023-07-20T15:57:24;27.60;64.10
4934;DHT22;2482;49.154;8.254;2023-07-20T15:59:51;27.60;64.70
4934;DHT22;2482;49.154;8.254;2023-07-20T16:02:19;27.80;64.60
4934;DHT22;2482;49.154;8.254;2023-07-20T16:04:46;28.00;65.10
4934;DHT22;2482;49.154;8.254;2023-07-20T16:07:19;28.20;66.30
4934;DHT22;2482;49.154;8.254;2023-07-20T16:09:46;28.30;67.20
4934;DHT22;2482;49.154;8.254;2023-07-20T16:12:13;28.40;66.90
4934;DHT22;2482;49.154;8.254;2023-07-20T16:14:40;28.10;66.90
4934;DHT22;2482;49.154;8.254;2023-07-20T16:17:12;28.10;66.90
4934;DHT22;2482;49.154;8.254;2023-07-20T16:19:39;28.10;65.40
4934;DHT22;2482;49.154;8.254;2023-07-20T16:22:06;28.20;66.40
4934;DHT22;2482;49.154;8.254;2023-07-20T16:24:35;28.10;64.20
4934;DHT22;2482;49.154;8.254;2023-07-20T16:27:02;28.20;66.80